createdAt,value
2018-08-30T00:01:07.093Z,8.77
2018-08-30T00:03:42.084Z,3.73
2018-08-30T00:06:16.700Z,3.90
2018-08-30T00:08:50.940Z,6.23
2018-08-30T00:11:25.485Z,3.20
2018-08-30T00:13:59.857Z,2.00
2018-08-30T00:16:34.100Z,1.03
2018-08-30T00:19:08.396Z,8.33
2018-08-30T00:21:42.947Z,12.87
2018-08-30T00:24:18.228Z,13.13
2018-08-30T00:26:53.099Z,12.27
2018-08-30T00:29:27.607Z,12.10
2018-08-30T00:32:02.133Z,1.93
2018-08-30T00:34:37.375Z,3.97
2018-08-30T00:37:12.066Z,6.10
2018-08-30T00:39:46.342Z,0.90
2018-08-30T00:42:21.269Z,7.43
2018-08-30T00:44:55.680Z,10.80
2018-08-30T00:47:29.887Z,3.70
2018-08-30T00:50:04.276Z,5.77
2018-08-30T00:52:38.653Z,22.80
2018-08-30T00:55:14.371Z,12.37
2018-08-30T00:57:48.663Z,22.43
2018-08-30T01:00:23.872Z,18.67
2018-08-30T01:02:58.403Z,13.03
2018-08-30T01:05:32.707Z,13.00
2018-08-30T01:08:06.998Z,5.73
2018-08-30T01:10:41.327Z,5.87
2018-08-30T01:13:15.644Z,8.30
2018-08-30T01:15:49.992Z,8.47
2018-08-30T01:18:24.399Z,15.20
2018-08-30T01:20:59.112Z,11.70
2018-08-30T01:23:34.200Z,19.23
2018-08-30T01:26:08.576Z,24.47
2018-08-30T01:28:42.925Z,4.90
2018-08-30T01:31:17.169Z,0.73
2018-08-30T01:33:51.417Z,9.03
2018-08-30T01:36:25.860Z,18.13
2018-08-30T01:39:00.144Z,21.80
2018-08-30T01:41:34.385Z,6.17
2018-08-30T01:44:08.711Z,2.30
2018-08-30T01:46:42.984Z,15.03
2018-08-30T01:49:17.327Z,6.53
2018-08-30T01:51:51.868Z,10.60
2018-08-30T01:54:26.289Z,14.57
2018-08-30T01:57:00.773Z,19.80
2018-08-30T01:59:35.089Z,13.70
2018-08-30T02:02:09.443Z,17.83
2018-08-30T02:04:44.288Z,19.60
2018-08-30T02:07:18.600Z,7.07
2018-08-30T02:09:53.079Z,23.53
2018-08-30T02:12:27.349Z,15.93
2018-08-30T02:15:01.568Z,19.60
2018-08-30T02:17:36.132Z,10.57
2018-08-30T02:20:10.441Z,10.63
2018-08-30T02:22:45.133Z,10.80
2018-08-30T02:25:19.340Z,33.67
2018-08-30T02:27:53.656Z,5.43
2018-08-30T02:30:27.927Z,12.07
2018-08-30T02:33:02.319Z,12.03
2018-08-30T02:35:36.777Z,9.50
2018-08-30T02:38:11.231Z,8.80
2018-08-30T02:40:46.441Z,11.43
2018-08-30T02:43:22.736Z,12.07
2018-08-30T02:45:57.573Z,4.70
2018-08-30T02:48:31.809Z,8.47
2018-08-30T02:51:05.956Z,9.50
2018-08-30T02:53:40.208Z,13.90
2018-08-30T02:56:14.436Z,2.93
2018-08-30T02:58:48.925Z,6.43
2018-08-30T03:01:23.396Z,7.47
2018-08-30T03:03:57.648Z,2.10
2018-08-30T03:06:32.150Z,10.07
2018-08-30T03:09:07.869Z,7.40
2018-08-30T03:11:42.019Z,4.17
2018-08-30T03:14:16.266Z,5.47
2018-08-30T03:16:50.547Z,9.43
2018-08-30T03:19:24.753Z,4.47
2018-08-30T03:21:58.957Z,10.07
2018-08-30T03:24:33.337Z,6.70
2018-08-30T03:27:07.759Z,7.57
2018-08-30T03:29:42.127Z,8.80
2018-08-30T03:32:16.596Z,11.57
2018-08-30T03:34:50.773Z,16.90
2018-08-30T03:37:25.069Z,8.37
2018-08-30T03:39:59.452Z,3.47
2018-08-30T03:42:33.603Z,7.37
2018-08-30T03:45:07.988Z,7.57
2018-08-30T03:47:42.372Z,10.80
2018-08-30T03:50:17.153Z,5.87
2018-08-30T03:52:51.379Z,4.23
2018-08-30T03:55:26.081Z,9.10
2018-08-30T03:58:03.163Z,7.77
2018-08-30T04:00:37.429Z,13.83
2018-08-30T04:03:11.729Z,7.37
2018-08-30T04:05:46.843Z,7.57
2018-08-30T04:08:21.194Z,2.37
2018-08-30T04:10:55.496Z,11.20
2018-08-30T04:13:30.868Z,2.43
2018-08-30T04:16:06.014Z,5.77
2018-08-30T04:18:40.294Z,8.87
2018-08-30T04:21:15.452Z,2.03
2018-08-30T04:23:49.991Z,6.10
2018-08-30T04:26:24.283Z,9.50
2018-08-30T04:28:58.676Z,14.90
2018-08-30T04:31:34.449Z,4.03
2018-08-30T04:34:08.728Z,7.47
2018-08-30T04:36:43.240Z,0.50
2018-08-30T04:39:17.441Z,9.83
2018-08-30T04:41:51.624Z,1.20
2018-08-30T04:44:25.936Z,7.90
2018-08-30T04:47:01.484Z,2.93
2018-08-30T04:49:35.699Z,2.83
2018-08-30T04:52:10.984Z,0.87
2018-08-30T04:54:45.423Z,0.40
2018-08-30T04:57:19.683Z,13.77
2018-08-30T04:59:54.011Z,8.43
2018-08-30T05:02:28.368Z,10.40
2018-08-30T05:05:06.819Z,2.87
2018-08-30T05:07:41.252Z,1.37
2018-08-30T05:10:15.433Z,6.90
2018-08-30T05:12:50.856Z,1.60
2018-08-30T05:15:25.202Z,3.27
2018-08-30T05:17:59.494Z,9.40
2018-08-30T05:20:34.811Z,11.60
2018-08-30T05:23:09.432Z,10.50
2018-08-30T05:25:43.672Z,6.63
2018-08-30T05:28:18.999Z,0.30
2018-08-30T05:30:53.860Z,8.70
2018-08-30T05:33:27.960Z,10.83
2018-08-30T05:36:02.863Z,5.50
2018-08-30T05:38:38.048Z,13.63
2018-08-30T05:41:12.476Z,9.80
2018-08-30T05:43:46.806Z,8.33
2018-08-30T05:46:21.146Z,2.47
2018-08-30T05:48:55.507Z,8.17
2018-08-30T05:51:30.880Z,8.77
2018-08-30T05:54:05.556Z,7.53
2018-08-30T05:56:39.958Z,11.83
2018-08-30T05:59:14.482Z,4.00
2018-08-30T06:01:48.737Z,10.23
2018-08-30T06:04:23.146Z,3.63
2018-08-30T06:06:57.284Z,10.63
2018-08-30T06:09:31.480Z,7.00
2018-08-30T06:12:06.852Z,10.50
2018-08-30T06:14:41.890Z,12.33
2018-08-30T06:17:16.204Z,14.50
2018-08-30T06:19:50.624Z,6.17
2018-08-30T06:22:24.972Z,5.90
2018-08-30T06:24:59.344Z,10.57
2018-08-30T06:27:34.100Z,11.83
2018-08-30T06:30:08.452Z,9.83
2018-08-30T06:32:42.827Z,8.57
2018-08-30T06:35:18.185Z,12.30
2018-08-30T06:37:53.646Z,11.80
2018-08-30T06:40:28.916Z,10.50
2018-08-30T06:43:03.305Z,11.67
2018-08-30T06:45:37.701Z,12.13
2018-08-30T06:48:13.331Z,11.80
2018-08-30T06:50:47.857Z,11.20
2018-08-30T06:53:23.114Z,9.63
2018-08-30T06:55:57.337Z,8.73
2018-08-30T06:58:32.955Z,10.43
2018-08-30T07:01:07.298Z,13.77
2018-08-30T07:03:41.721Z,7.90
2018-08-30T07:06:16.397Z,11.27
2018-08-30T07:08:50.908Z,11.70
2018-08-30T07:11:25.093Z,6.63
2018-08-30T07:14:00.026Z,8.63
2018-08-30T07:16:34.322Z,6.90
2018-08-30T07:19:14.939Z,8.17
2018-08-30T07:21:50.252Z,10.73
2018-08-30T07:24:28.868Z,6.80
2018-08-30T07:27:04.284Z,7.50
2018-08-30T07:29:38.632Z,4.13
2018-08-30T07:32:12.932Z,7.20
2018-08-30T07:34:47.386Z,6.27
2018-08-30T07:37:22.481Z,8.17
2018-08-30T07:39:58.464Z,8.20
2018-08-30T07:42:34.879Z,6.17
2018-08-30T07:45:09.543Z,11.10
2018-08-30T07:47:43.748Z,4.87
2018-08-30T07:50:18.191Z,6.53
2018-08-30T07:52:56.338Z,6.60
2018-08-30T07:55:31.581Z,8.43
2018-08-30T07:58:06.259Z,4.33
2018-08-30T08:00:40.688Z,7.87
2018-08-30T08:03:17.441Z,8.90
2018-08-30T08:05:51.970Z,7.47
2018-08-30T08:08:26.313Z,4.20
2018-08-30T08:11:03.271Z,8.00
2018-08-30T08:13:38.404Z,11.77
2018-08-30T08:16:13.751Z,5.93
2018-08-30T08:18:48.176Z,2.63
2018-08-30T08:21:22.496Z,4.30
2018-08-30T08:23:56.733Z,7.60
2018-08-30T08:26:33.190Z,7.03
2018-08-30T08:29:07.556Z,9.03
2018-08-30T08:31:41.846Z,12.20
2018-08-30T08:34:16.264Z,3.97
2018-08-30T08:36:50.564Z,7.50
2018-08-30T08:39:25.387Z,6.73
2018-08-30T08:41:59.606Z,12.73
2018-08-30T08:44:33.856Z,2.53
2018-08-30T08:47:08.752Z,11.37
2018-08-30T08:49:43.172Z,9.27
2018-08-30T08:52:17.340Z,8.87
2018-08-30T08:54:51.730Z,5.37
2018-08-30T08:57:26.263Z,14.03
2018-08-30T09:00:00.457Z,10.23
2018-08-30T09:02:34.637Z,7.93
2018-08-30T09:05:09.540Z,1.37
2018-08-30T09:07:44.032Z,6.90
2018-08-30T09:10:18.998Z,5.93
2018-08-30T09:12:53.361Z,2.53
2018-08-30T09:15:27.701Z,5.63
2018-08-30T09:18:02.089Z,4.80
2018-08-30T09:20:36.501Z,9.13
2018-08-30T09:23:10.875Z,9.83
2018-08-30T09:25:45.371Z,3.83
2018-08-30T09:28:19.722Z,2.80
2018-08-30T09:30:54.094Z,8.20
2018-08-30T09:33:28.264Z,2.13
2018-08-30T09:36:02.540Z,9.67
2018-08-30T09:38:36.908Z,4.07
2018-08-30T09:41:11.263Z,7.27
2018-08-30T09:43:45.856Z,6.77
2018-08-30T09:46:20.046Z,5.97
2018-08-30T09:48:54.343Z,2.93
2018-08-30T09:51:29.089Z,8.10
2018-08-30T09:54:03.211Z,7.87
2018-08-30T09:56:38.070Z,7.17
2018-08-30T09:59:12.573Z,7.73
2018-08-30T10:01:47.454Z,5.83
2018-08-30T10:04:21.889Z,7.93
2018-08-30T10:06:56.251Z,7.30
2018-08-30T10:09:31.597Z,5.47
2018-08-30T10:12:05.820Z,2.27
2018-08-30T10:14:40.633Z,5.43
2018-08-30T10:17:14.901Z,9.63
2018-08-30T10:19:49.181Z,6.40
2018-08-30T10:22:24.665Z,4.90
2018-08-30T10:24:59.456Z,2.83
2018-08-30T10:27:33.637Z,5.07
2018-08-30T10:30:07.861Z,5.30
2018-08-30T10:32:42.169Z,4.70
2018-08-30T10:35:16.329Z,6.60
2018-08-30T10:37:50.619Z,7.73
2018-08-30T10:40:24.936Z,6.80
2018-08-30T10:42:59.292Z,7.70
2018-08-30T10:45:33.566Z,2.27
2018-08-30T10:48:08.000Z,3.50
2018-08-30T10:50:42.133Z,4.90
2018-08-30T10:53:16.486Z,5.10
2018-08-30T10:55:51.640Z,6.23
2018-08-30T10:58:26.152Z,5.50
2018-08-30T11:01:01.116Z,2.87
2018-08-30T11:03:35.992Z,1.60
2018-08-30T11:06:10.199Z,6.07
2018-08-30T11:08:44.520Z,5.60
2018-08-30T11:11:18.911Z,7.00
2018-08-30T11:13:53.149Z,4.10
2018-08-30T11:16:28.679Z,5.90
2018-08-30T11:19:02.922Z,3.27
2018-08-30T11:21:38.204Z,5.23
2018-08-30T11:24:12.344Z,1.80
2018-08-30T11:26:46.728Z,6.40
2018-08-30T11:29:20.955Z,3.00
2018-08-30T11:31:55.167Z,7.07
2018-08-30T11:34:29.492Z,5.47
2018-08-30T11:37:03.741Z,3.03
2018-08-30T11:39:38.947Z,4.47
2018-08-30T11:42:13.628Z,4.43
2018-08-30T11:44:47.989Z,2.10
2018-08-30T11:47:22.264Z,2.80
2018-08-30T11:49:56.564Z,5.80
2018-08-30T11:52:30.980Z,7.57
2018-08-30T11:55:05.794Z,6.83
2018-08-30T11:57:40.328Z,6.30
2018-08-30T12:00:14.593Z,3.03
2018-08-30T12:02:49.273Z,6.97
2018-08-30T12:05:24.719Z,6.80
2018-08-30T12:08:00.255Z,3.00
2018-08-30T12:13:20.085Z,3.07
2018-08-30T12:15:56.521Z,4.70
2018-08-30T12:18:30.827Z,6.33
2018-08-30T12:21:05.164Z,4.80
2018-08-30T12:23:42.980Z,2.83
2018-08-30T12:26:20.338Z,1.40
2018-08-30T12:28:56.341Z,0.97
2018-08-30T12:31:30.545Z,4.23
2018-08-30T12:34:06.792Z,3.90
2018-08-30T12:36:41.304Z,2.43
2018-08-30T12:39:16.283Z,2.37
2018-08-30T12:41:50.458Z,4.40
2018-08-30T12:44:29.306Z,5.07
2018-08-30T12:47:09.312Z,3.70
2018-08-30T12:49:43.993Z,6.63
2018-08-30T12:52:18.381Z,3.50
2018-08-30T12:54:52.667Z,2.70
2018-08-30T12:57:26.878Z,0.73
2018-08-30T13:00:01.262Z,2.17
2018-08-30T13:02:35.411Z,6.53
2018-08-30T13:05:09.935Z,2.23
2018-08-30T13:07:44.436Z,4.20
2018-08-30T13:10:19.171Z,1.50
2018-08-30T13:12:53.410Z,0.93
2018-08-30T13:15:27.899Z,5.07
2018-08-30T13:18:01.902Z,3.40
2018-08-30T13:20:36.234Z,1.83
2018-08-30T13:23:10.193Z,3.30
2018-08-30T13:25:45.125Z,4.90
2018-08-30T13:28:19.522Z,0.80
2018-08-30T13:30:54.063Z,3.70
2018-08-30T13:33:28.138Z,5.90
2018-08-30T13:36:03.691Z,3.77
2018-08-30T13:38:37.762Z,5.13
2018-08-30T13:41:12.416Z,6.70
2018-08-30T13:43:46.436Z,6.67
2018-08-30T13:46:20.654Z,8.93
2018-08-30T13:48:55.107Z,4.07
2018-08-30T13:51:29.706Z,2.93
2018-08-30T13:54:04.233Z,1.70
2018-08-30T13:56:38.623Z,2.93
2018-08-30T13:59:12.979Z,2.73
2018-08-30T14:01:47.199Z,0.40
2018-08-30T14:04:21.281Z,1.37
2018-08-30T14:06:56.641Z,5.20
2018-08-30T14:09:30.989Z,4.30
2018-08-30T14:12:05.217Z,1.70
2018-08-30T14:14:40.102Z,0.30
2018-08-30T14:17:14.876Z,1.17
2018-08-30T14:19:50.620Z,1.80
2018-08-30T14:22:25.544Z,3.87
2018-08-30T14:24:59.818Z,2.17
2018-08-30T14:27:38.532Z,2.90
2018-08-30T14:30:12.860Z,2.00
2018-08-30T14:32:47.504Z,3.70
2018-08-30T14:35:22.760Z,4.03
2018-08-30T14:37:57.027Z,1.80
2018-08-30T14:40:32.341Z,5.20
2018-08-30T14:43:06.783Z,3.53
2018-08-30T14:45:42.143Z,4.53
2018-08-30T14:48:16.881Z,2.43
2018-08-30T14:50:51.340Z,1.77
2018-08-30T14:53:26.423Z,1.00
2018-08-30T14:56:00.365Z,2.67
2018-08-30T14:58:34.808Z,2.33
2018-08-30T15:01:09.038Z,2.83
2018-08-30T15:03:44.244Z,2.73
2018-08-30T15:06:18.660Z,2.90
2018-08-30T15:08:53.131Z,3.03
2018-08-30T15:11:27.444Z,0.97
2018-08-30T15:14:01.830Z,3.50
2018-08-30T15:16:36.338Z,2.27
2018-08-30T15:19:10.639Z,1.50
2018-08-30T15:21:45.076Z,2.73
2018-08-30T15:24:19.480Z,2.40
2018-08-30T15:26:53.739Z,2.43
2018-08-30T15:29:27.831Z,4.23
2018-08-30T15:32:03.047Z,3.57
2018-08-30T15:34:37.444Z,4.13
2018-08-30T15:37:11.982Z,3.00
2018-08-30T15:39:46.141Z,3.53
2018-08-30T15:42:20.503Z,1.63
2018-08-30T15:44:54.682Z,2.17
2018-08-30T15:47:29.819Z,2.83
2018-08-30T15:50:04.792Z,1.93
2018-08-30T15:52:39.916Z,2.53
2018-08-30T15:55:14.058Z,3.43
2018-08-30T15:57:50.734Z,0.87
2018-08-30T16:00:25.587Z,1.30
2018-08-30T16:02:59.855Z,1.33
2018-08-30T16:05:35.062Z,0.70
2018-08-30T16:08:10.120Z,0.30
2018-08-30T16:10:44.849Z,0.30
2018-08-30T16:13:19.397Z,3.50
2018-08-30T16:15:54.009Z,1.73
2018-08-30T16:18:28.511Z,2.60
2018-08-30T16:21:02.891Z,1.20
2018-08-30T16:23:37.833Z,1.07
2018-08-30T16:26:12.245Z,1.87
2018-08-30T16:28:47.415Z,0.80
2018-08-30T16:31:23.073Z,0.97
2018-08-30T16:33:57.504Z,2.73
2018-08-30T16:36:33.747Z,0.50
2018-08-30T16:39:09.406Z,4.43
2018-08-30T16:41:43.572Z,1.50
2018-08-30T16:44:18.657Z,1.53
2018-08-30T16:46:53.064Z,2.67
2018-08-30T16:49:28.614Z,0.70
2018-08-30T16:52:02.862Z,1.63
2018-08-30T16:54:37.304Z,0.93
2018-08-30T16:57:11.675Z,0.60
2018-08-30T16:59:46.527Z,1.40
2018-08-30T17:02:20.798Z,0.30
2018-08-30T17:04:55.863Z,0.40
2018-08-30T17:07:30.912Z,0.57
2018-08-30T17:10:05.420Z,0.40
2018-08-30T17:12:39.891Z,0.30
2018-08-30T17:15:14.594Z,0.30
2018-08-30T17:17:49.073Z,1.50
2018-08-30T17:20:27.437Z,1.27
2018-08-30T17:23:02.239Z,2.00
2018-08-30T17:25:36.665Z,1.60
2018-08-30T17:28:11.457Z,0.70
2018-08-30T17:30:45.831Z,0.70
2018-08-30T17:33:20.147Z,0.40
2018-08-30T17:35:55.150Z,0.53
2018-08-30T17:38:29.564Z,0.30
2018-08-30T17:41:03.884Z,2.70
2018-08-30T17:43:38.492Z,0.53
2018-08-30T17:46:12.634Z,0.83
2018-08-30T17:48:46.845Z,1.63
2018-08-30T17:51:21.674Z,1.17
2018-08-30T17:53:55.956Z,0.30
2018-08-30T17:56:30.534Z,1.03
2018-08-30T17:59:05.672Z,1.57
2018-08-30T18:01:40.903Z,0.73
2018-08-30T18:04:15.197Z,0.90
2018-08-30T18:06:49.724Z,0.50
2018-08-30T18:09:24.237Z,0.40
2018-08-30T18:11:59.422Z,2.00
2018-08-30T18:14:33.823Z,1.10
2018-08-30T18:17:08.264Z,1.60
2018-08-30T18:19:45.772Z,1.13
2018-08-30T18:22:21.607Z,0.70
2018-08-30T18:24:56.008Z,0.83
2018-08-30T18:27:31.560Z,0.70
2018-08-30T18:30:08.477Z,0.30
2018-08-30T18:32:42.742Z,0.30
2018-08-30T18:35:18.083Z,0.30
2018-08-30T18:37:52.786Z,0.67
2018-08-30T18:40:27.048Z,1.27
2018-08-30T18:43:01.664Z,0.30
2018-08-30T18:45:36.412Z,0.70
2018-08-30T18:48:10.845Z,0.30
2018-08-30T18:50:45.132Z,0.40
2018-08-30T18:53:19.344Z,0.30
2018-08-30T18:55:53.792Z,0.30
2018-08-30T18:58:28.292Z,0.63
2018-08-30T19:01:03.895Z,1.43
2018-08-30T19:03:39.275Z,0.30
2018-08-30T19:06:13.929Z,1.47
2018-08-30T19:08:48.265Z,0.50
2018-08-30T19:11:22.668Z,0.67
2018-08-30T19:13:57.177Z,0.83
2018-08-30T19:16:36.843Z,0.40
2018-08-30T19:19:19.763Z,0.30
2018-08-30T19:21:54.110Z,0.30
2018-08-30T19:24:33.840Z,0.30
2018-08-30T19:27:08.290Z,1.03
2018-08-30T19:29:48.019Z,0.40
2018-08-30T19:32:22.405Z,0.53
2018-08-30T19:35:01.958Z,0.30
2018-08-30T19:37:36.372Z,1.00
2018-08-30T19:40:15.637Z,0.40
2018-08-30T19:42:50.229Z,0.50
2018-08-30T19:45:24.721Z,0.40
2018-08-30T19:47:59.384Z,0.30
2018-08-30T19:50:33.572Z,0.30
2018-08-30T19:53:07.857Z,0.50
2018-08-30T19:55:42.359Z,0.50
2018-08-30T19:58:16.582Z,0.40
2018-08-30T20:00:51.127Z,0.30
2018-08-30T20:03:25.694Z,2.83
2018-08-30T20:06:00.125Z,0.37
2018-08-30T20:08:34.526Z,0.30
2018-08-30T20:11:08.866Z,2.60
2018-08-30T20:13:43.386Z,2.70
2018-08-30T20:16:17.807Z,0.30
2018-08-30T20:18:52.239Z,0.80
2018-08-30T20:21:26.892Z,1.33
2018-08-30T20:24:01.248Z,1.20
2018-08-30T20:26:35.928Z,1.80
2018-08-30T20:29:11.759Z,0.30
2018-08-30T20:31:45.979Z,1.17
2018-08-30T20:34:20.289Z,0.30
2018-08-30T20:36:54.819Z,0.60
2018-08-30T20:39:29.316Z,0.30
2018-08-30T20:42:03.658Z,0.37
2018-08-30T20:44:38.286Z,0.47
2018-08-30T20:47:13.308Z,0.50
2018-08-30T20:49:49.944Z,0.30
2018-08-30T20:52:24.227Z,0.93
2018-08-30T20:54:58.599Z,0.30
2018-08-30T20:57:32.960Z,0.40
2018-08-30T21:00:07.911Z,0.40
2018-08-30T21:02:43.741Z,0.40
2018-08-30T21:05:18.204Z,0.77
2018-08-30T21:07:52.399Z,0.40
2018-08-30T21:10:26.701Z,0.50
2018-08-30T21:13:00.998Z,3.53
2018-08-30T21:15:35.235Z,3.47
2018-08-30T21:18:09.563Z,1.60
2018-08-30T21:20:43.757Z,1.00
2018-08-30T21:23:17.961Z,1.90
2018-08-30T21:25:52.480Z,4.00
2018-08-30T21:28:27.275Z,2.33
2018-08-30T21:31:01.625Z,2.43
2018-08-30T21:33:35.812Z,1.37
2018-08-30T21:36:10.065Z,0.30
2018-08-30T21:38:44.449Z,1.63
2018-08-30T21:41:18.736Z,1.53
2018-08-30T21:43:53.607Z,0.40
2018-08-30T21:46:27.819Z,1.80
2018-08-30T21:49:02.345Z,0.50
2018-08-30T21:51:39.329Z,0.30
2018-08-30T21:54:16.304Z,0.87
2018-08-30T21:56:51.117Z,0.62
2018-08-30T21:59:25.649Z,0.30
2018-08-30T22:01:59.908Z,0.80
2018-08-30T22:04:34.332Z,0.30
2018-08-30T22:07:08.777Z,0.50
2018-08-30T22:09:46.139Z,0.40
2018-08-30T22:12:20.556Z,0.30
2018-08-30T22:14:55.464Z,0.37
2018-08-30T22:17:29.815Z,0.40
2018-08-30T22:20:04.299Z,0.30
2018-08-30T22:22:38.561Z,0.40
2018-08-30T22:25:12.791Z,0.57
2018-08-30T22:27:46.989Z,0.60
2018-08-30T22:30:21.248Z,0.40
2018-08-30T22:32:56.601Z,0.57
2018-08-30T22:35:30.958Z,0.30
2018-08-30T22:38:05.401Z,0.40
2018-08-30T22:40:39.748Z,0.63
2018-08-30T22:43:14.074Z,0.60
2018-08-30T22:45:49.404Z,0.30
2018-08-30T22:48:23.718Z,0.40
2018-08-30T22:50:57.972Z,0.60
2018-08-30T22:53:32.424Z,0.30
2018-08-30T22:56:07.357Z,1.13
2018-08-30T22:58:41.753Z,0.50
2018-08-30T23:01:16.153Z,0.87
2018-08-30T23:03:50.420Z,0.40
2018-08-30T23:06:25.268Z,0.30
2018-08-30T23:08:59.858Z,0.60
2018-08-30T23:11:34.674Z,0.30
2018-08-30T23:14:11.406Z,1.03
2018-08-30T23:16:45.667Z,0.37
2018-08-30T23:19:19.899Z,0.40
2018-08-30T23:21:54.124Z,0.40
2018-08-30T23:24:28.740Z,0.40
2018-08-30T23:27:03.317Z,0.30
2018-08-30T23:29:37.564Z,0.87
2018-08-30T23:32:12.968Z,0.30
2018-08-30T23:34:47.647Z,0.30
2018-08-30T23:37:21.811Z,0.30
2018-08-30T23:39:56.152Z,0.40
2018-08-30T23:42:30.437Z,1.10
2018-08-30T23:45:04.712Z,0.30
2018-08-30T23:47:39.132Z,0.30
2018-08-30T23:50:13.608Z,0.33
2018-08-30T23:52:47.971Z,0.57
2018-08-30T23:55:22.189Z,0.30
2018-08-30T23:58:09.316Z,0.40
